createdAt,value
2019-04-20T00:01:20.006Z,4.30
2019-04-20T00:03:46.777Z,4.90
2019-04-20T00:06:19.495Z,4.77
2019-04-20T00:08:58.854Z,5.30
2019-04-20T00:11:28.332Z,5.03
2019-04-20T00:14:03.834Z,4.67
2019-04-20T00:16:31.627Z,4.90
2019-04-20T00:19:05.445Z,5.00
2019-04-20T00:21:58.622Z,4.97
2019-04-20T00:24:37.573Z,4.70
2019-04-20T00:27:32.934Z,4.90
2019-04-20T00:29:58.695Z,4.73
2019-04-20T00:32:30.013Z,4.70
2019-04-20T00:34:50.661Z,4.90
2019-04-20T00:37:23.352Z,4.83
2019-04-20T00:39:55.994Z,4.77
2019-04-20T00:42:33.976Z,4.90
2019-04-20T00:45:09.852Z,4.80
2019-04-20T00:47:45.492Z,5.00
2019-04-20T00:50:25.711Z,4.70
2019-04-20T00:52:55.767Z,5.00
2019-04-20T00:55:14.920Z,4.70
2019-04-20T00:57:54.874Z,5.10
2019-04-20T01:00:37.206Z,5.30
2019-04-20T01:03:09.847Z,5.63
2019-04-20T01:06:02.244Z,4.73
2019-04-20T01:08:21.364Z,4.83
2019-04-20T01:10:56.471Z,4.90
2019-04-20T01:13:28.098Z,5.10
2019-04-20T01:16:07.722Z,4.73
2019-04-20T01:18:32.604Z,5.00
2019-04-20T01:21:06.808Z,4.60
2019-04-20T01:23:43.779Z,5.13
2019-04-20T01:26:14.482Z,4.80
2019-04-20T01:28:54.176Z,4.80
2019-04-20T01:31:27.192Z,5.10
2019-04-20T01:33:58.897Z,4.67
2019-04-20T01:36:43.027Z,4.60
2019-04-20T01:39:09.402Z,4.77
2019-04-20T01:41:30.731Z,5.00
2019-04-20T01:44:02.708Z,4.50
2019-04-20T01:46:39.152Z,5.03
2019-04-20T01:49:14.797Z,5.10
2019-04-20T01:51:52.537Z,4.90
2019-04-20T01:54:33.927Z,5.00
2019-04-20T01:57:04.699Z,4.63
2019-04-20T01:59:53.386Z,4.63
2019-04-20T02:02:24.905Z,5.13
2019-04-20T02:05:08.107Z,5.30
2019-04-20T02:07:38.974Z,5.30
2019-04-20T02:10:11.364Z,5.30
2019-04-20T02:12:42.533Z,4.93
2019-04-20T02:15:23.140Z,5.10
2019-04-20T02:18:03.669Z,5.13
2019-04-20T02:20:39.718Z,5.40
2019-04-20T02:23:10.700Z,5.30
2019-04-20T02:25:29.063Z,5.70
2019-04-20T02:28:18.950Z,5.57
2019-04-20T02:31:23.119Z,5.37
2019-04-20T02:33:43.280Z,4.97
2019-04-20T02:41:50.535Z,5.80
2019-04-20T02:46:51.039Z,6.30
2019-04-20T02:51:46.696Z,5.77
2019-04-20T02:54:18.513Z,6.10
2019-04-20T02:57:00.659Z,5.73
2019-04-20T03:01:45.666Z,5.70
2019-04-20T03:04:04.870Z,6.60
2019-04-20T03:06:53.537Z,6.07
2019-04-20T03:09:31.507Z,5.87
2019-04-20T03:12:06.163Z,5.77
2019-04-20T03:14:31.918Z,5.97
2019-04-20T03:17:18.201Z,6.20
2019-04-20T03:19:38.665Z,6.70
2019-04-20T03:22:23.631Z,6.53
2019-04-20T03:24:53.928Z,6.47
2019-04-20T03:27:33.061Z,6.63
2019-04-20T03:31:15.719Z,7.17
2019-04-20T03:33:30.929Z,7.17
2019-04-20T03:35:43.601Z,6.40
2019-04-20T03:38:10.680Z,7.10
2019-04-20T03:40:37.573Z,6.73
2019-04-20T03:42:54.993Z,7.23
2019-04-20T03:45:31.488Z,7.47
2019-04-20T03:48:09.069Z,6.93
2019-04-20T03:50:50.436Z,6.87
2019-04-20T03:53:31.301Z,6.20
2019-04-20T03:56:29.779Z,7.00
2019-04-20T03:59:17.713Z,6.90
2019-04-20T04:02:25.464Z,6.97
2019-04-20T04:05:01.790Z,7.30
2019-04-20T04:07:21.859Z,7.10
2019-04-20T04:10:02.470Z,7.00
2019-04-20T04:13:11.770Z,6.70
2019-04-20T04:15:50.056Z,7.17
2019-04-20T04:18:27.761Z,6.60
2019-04-20T04:21:03.050Z,7.43
2019-04-20T04:23:47.119Z,6.43
2019-04-20T04:26:17.313Z,6.47
2019-04-20T04:28:49.042Z,6.83
2019-04-20T04:31:27.847Z,6.77
2019-04-20T04:33:59.332Z,6.17
2019-04-20T04:36:25.680Z,6.43
2019-04-20T04:39:19.252Z,6.60
2019-04-20T04:41:36.720Z,6.43
2019-04-20T04:44:09.678Z,6.73
2019-04-20T04:46:26.798Z,6.80
2019-04-20T04:49:08.840Z,7.00
2019-04-20T04:51:42.606Z,6.90
2019-04-20T04:54:16.345Z,6.53
2019-04-20T04:56:39.748Z,7.20
2019-04-20T04:59:10.968Z,6.73
2019-04-20T05:01:47.807Z,7.10
2019-04-20T05:04:57.888Z,6.27
2019-04-20T05:07:03.851Z,6.90
2019-04-20T05:09:23.824Z,6.30
2019-04-20T05:11:59.972Z,6.77
2019-04-20T05:14:41.859Z,6.13
2019-04-20T05:17:15.282Z,6.90
2019-04-20T05:19:52.825Z,6.83
2019-04-20T05:22:34.755Z,6.80
2019-04-20T05:25:12.957Z,6.30
2019-04-20T05:27:51.302Z,6.33
2019-04-20T05:30:08.223Z,6.73
2019-04-20T05:32:52.432Z,7.07
2019-04-20T05:35:31.082Z,6.97
2019-04-20T05:38:12.035Z,7.10
2019-04-20T05:40:38.976Z,6.93
2019-04-20T05:43:44.275Z,6.70
2019-04-20T05:46:23.540Z,6.70
2019-04-20T05:48:57.934Z,6.23
2019-04-20T05:51:29.546Z,6.17
2019-04-20T05:54:02.558Z,6.10
2019-04-20T05:56:35.813Z,6.40
2019-04-20T05:59:07.555Z,5.73
2019-04-20T06:01:47.582Z,5.93
2019-04-20T06:04:10.113Z,6.40
2019-04-20T06:06:49.597Z,6.37
2019-04-20T06:09:25.152Z,6.40
2019-04-20T06:12:07.694Z,5.97
2019-04-20T06:14:44.232Z,6.67
2019-04-20T06:17:26.465Z,6.30
2019-04-20T06:20:06.455Z,6.70
2019-04-20T06:22:40.760Z,6.57
2019-04-20T06:25:31.843Z,6.70
2019-04-20T06:27:52.819Z,5.70
2019-04-20T06:30:21.677Z,6.27
2019-04-20T06:34:07.570Z,7.13
2019-04-20T06:36:29.462Z,6.40
2019-04-20T06:39:02.026Z,7.03
2019-04-20T06:41:45.286Z,6.20
2019-04-20T06:44:08.644Z,6.40
2019-04-20T06:46:50.541Z,6.17
2019-04-20T06:49:18.455Z,6.47
2019-04-20T06:52:15.355Z,6.73
2019-04-20T06:55:03.349Z,6.50
2019-04-20T06:57:54.172Z,6.67
2019-04-20T07:00:15.460Z,6.30
2019-04-20T07:02:57.829Z,6.63
2019-04-20T07:08:07.021Z,6.40
2019-04-20T07:10:31.333Z,6.53
2019-04-20T07:13:01.461Z,6.90
2019-04-20T07:15:41.543Z,7.10
2019-04-20T07:18:26.558Z,7.07
2019-04-20T07:21:00.509Z,7.60
2019-04-20T07:23:37.162Z,6.67
2019-04-20T07:26:13.838Z,7.23
2019-04-20T07:28:45.073Z,7.43
2019-04-20T07:31:14.141Z,7.20
2019-04-20T07:33:55.150Z,7.73
2019-04-20T07:36:24.472Z,7.57
2019-04-20T07:39:05.573Z,7.13
2019-04-20T07:41:42.906Z,7.37
2019-04-20T07:44:10.583Z,7.50
2019-04-20T07:46:47.044Z,7.83
2019-04-20T07:49:12.778Z,7.33
2019-04-20T07:51:29.670Z,7.30
2019-04-20T07:54:24.576Z,7.20
2019-04-20T07:56:47.675Z,7.47
2019-04-20T07:59:13.963Z,7.70
2019-04-20T08:02:15.745Z,7.20
2019-04-20T08:04:52.386Z,7.53
2019-04-20T08:07:11.156Z,7.50
2019-04-20T08:09:49.792Z,6.80
2019-04-20T08:12:51.729Z,7.50
2019-04-20T08:15:32.244Z,7.90
2019-04-20T08:18:07.640Z,7.33
2019-04-20T08:20:29.867Z,7.72
2019-04-20T08:23:12.334Z,7.70
2019-04-20T08:25:27.730Z,7.23
2019-04-20T08:28:13.541Z,8.07
2019-04-20T08:31:21.713Z,7.95
2019-04-20T08:34:15.595Z,7.25
2019-04-20T08:36:44.204Z,7.50
2019-04-20T08:39:24.130Z,7.87
2019-04-20T08:41:45.277Z,7.80
2019-04-20T08:44:39.668Z,8.23
2019-04-20T08:47:00.246Z,7.92
2019-04-20T08:49:29.544Z,7.33
2019-04-20T08:52:05.847Z,8.03
2019-04-20T08:54:26.058Z,7.80
2019-04-20T08:56:51.801Z,6.80
2019-04-20T08:59:18.818Z,7.08
2019-04-20T09:01:51.109Z,7.70
2019-04-20T09:04:36.041Z,7.15
2019-04-20T09:07:05.571Z,7.37
2019-04-20T09:09:49.130Z,7.22
2019-04-20T09:12:19.143Z,7.37
2019-04-20T09:14:38.447Z,7.10
2019-04-20T09:17:26.412Z,6.87
2019-04-20T09:19:59.935Z,6.78
2019-04-20T09:22:45.713Z,7.05
2019-04-20T09:28:11.575Z,6.97
2019-04-20T09:30:42.887Z,6.58
2019-04-20T09:33:43.426Z,6.67
2019-04-20T09:36:18.211Z,6.72
2019-04-20T09:39:08.610Z,6.20
2019-04-20T09:42:00.710Z,5.90
2019-04-20T09:44:30.372Z,6.45
2019-04-20T09:47:00.445Z,6.37
2019-04-20T09:49:42.487Z,6.08
2019-04-20T09:52:16.906Z,5.90
2019-04-20T09:54:57.176Z,6.10
2019-04-20T09:57:30.918Z,5.70
2019-04-20T10:00:04.276Z,5.47
2019-04-20T10:02:24.054Z,6.15
2019-04-20T10:04:51.471Z,5.83
2019-04-20T10:07:26.214Z,5.65
2019-04-20T10:09:57.781Z,5.45
2019-04-20T10:12:29.449Z,5.60
2019-04-20T10:15:04.154Z,5.45
2019-04-20T10:17:35.748Z,6.20
2019-04-20T10:20:11.576Z,6.00
2019-04-20T10:22:42.302Z,6.50
2019-04-20T10:25:15.150Z,5.92
2019-04-20T10:27:47.478Z,5.83
2019-04-20T10:30:20.678Z,5.92
2019-04-20T10:32:53.953Z,5.80
2019-04-20T10:35:25.541Z,5.85
2019-04-20T10:38:15.688Z,6.12
2019-04-20T10:40:59.778Z,5.97
2019-04-20T10:43:20.158Z,6.08
2019-04-20T10:45:52.907Z,6.05
2019-04-20T10:48:24.461Z,6.35
2019-04-20T10:50:56.907Z,5.50
2019-04-20T10:53:30.001Z,5.80
2019-04-20T10:56:01.555Z,5.05
2019-04-20T10:58:33.759Z,5.22
2019-04-20T11:01:07.362Z,5.20
2019-04-20T11:03:40.733Z,5.53
2019-04-20T11:06:12.211Z,4.90
2019-04-20T11:08:44.590Z,4.15
2019-04-20T11:11:23.829Z,4.95
2019-04-20T11:13:49.471Z,4.55
2019-04-20T11:16:22.050Z,3.52
2019-04-20T11:18:53.667Z,3.58
2019-04-20T11:21:26.239Z,4.50
2019-04-20T11:23:58.832Z,4.30
2019-04-20T11:26:31.760Z,4.35
2019-04-20T11:29:04.186Z,4.95
2019-04-20T11:31:41.631Z,4.70
2019-04-20T11:34:10.124Z,4.15
2019-04-20T11:36:41.639Z,3.70
2019-04-20T11:39:14.768Z,3.87
2019-04-20T11:41:47.407Z,4.00
2019-04-20T11:44:20.011Z,3.90
2019-04-20T11:46:52.549Z,3.87
2019-04-20T11:49:23.992Z,3.70
2019-04-20T11:51:55.583Z,3.52
2019-04-20T11:54:28.310Z,3.98
2019-04-20T11:56:59.775Z,4.00
2019-04-20T11:59:32.983Z,4.10
2019-04-20T12:02:27.962Z,4.45
2019-04-20T12:05:10.240Z,4.08
2019-04-20T12:07:49.097Z,3.87
2019-04-20T12:10:23.997Z,2.50
2019-04-20T12:12:55.698Z,3.70
2019-04-20T12:15:28.927Z,3.92
2019-04-20T12:18:01.961Z,4.40
2019-04-20T12:20:34.560Z,4.05
2019-04-20T12:23:06.543Z,3.50
2019-04-20T12:25:39.679Z,3.65
2019-04-20T12:28:11.686Z,4.60
2019-04-20T12:30:43.884Z,3.85
2019-04-20T12:33:15.621Z,4.30
2019-04-20T12:35:48.017Z,4.37
2019-04-20T12:38:19.519Z,4.85
2019-04-20T12:40:52.379Z,4.33
2019-04-20T12:43:25.423Z,3.92
2019-04-20T12:45:57.965Z,4.22
2019-04-20T12:48:29.723Z,4.08
2019-04-20T12:51:01.591Z,4.20
2019-04-20T12:53:33.066Z,4.17
2019-04-20T12:56:04.520Z,4.28
2019-04-20T12:58:36.624Z,3.83
2019-04-20T13:01:08.088Z,4.20
2019-04-20T13:03:39.724Z,4.03
2019-04-20T13:06:12.091Z,3.80
2019-04-20T13:08:51.402Z,3.87
2019-04-20T13:11:24.773Z,3.90
2019-04-20T13:15:16.375Z,3.58
2019-04-20T13:17:50.670Z,4.17
2019-04-20T13:20:21.657Z,3.60
2019-04-20T13:22:53.130Z,3.62
2019-04-20T13:25:26.305Z,3.47
2019-04-20T13:27:58.873Z,3.25
2019-04-20T13:30:30.462Z,3.72
2019-04-20T13:33:02.133Z,3.67
2019-04-20T13:35:34.324Z,3.37
2019-04-20T13:38:05.885Z,3.77
2019-04-20T13:40:37.761Z,3.95
2019-04-20T13:43:09.946Z,3.85
2019-04-20T13:45:42.706Z,3.87
2019-04-20T13:48:15.114Z,3.75
2019-04-20T13:50:46.696Z,3.77
2019-04-20T13:53:19.178Z,3.72
2019-04-20T13:55:51.912Z,3.72
2019-04-20T13:58:41.473Z,3.65
2019-04-20T14:01:21.178Z,3.58
2019-04-20T14:04:05.267Z,3.30
2019-04-20T14:06:37.318Z,3.58
2019-04-20T14:09:10.015Z,3.40
2019-04-20T14:11:43.322Z,3.33
2019-04-20T14:14:15.149Z,3.35
2019-04-20T14:16:47.519Z,3.87
2019-04-20T14:19:19.048Z,3.67
2019-04-20T14:21:50.711Z,3.42
2019-04-20T14:24:22.127Z,3.58
2019-04-20T14:26:54.813Z,3.40
2019-04-20T14:29:27.293Z,3.30
2019-04-20T14:32:01.550Z,3.50
2019-04-20T14:34:33.106Z,3.12
2019-04-20T14:37:04.815Z,3.12
2019-04-20T14:39:36.394Z,3.17
2019-04-20T14:42:07.888Z,3.30
2019-04-20T14:44:39.560Z,3.40
2019-04-20T14:47:11.887Z,3.65
2019-04-20T14:49:43.522Z,3.55
2019-04-20T14:52:15.764Z,3.17
2019-04-20T14:54:47.704Z,3.50
2019-04-20T14:57:19.299Z,3.33
2019-04-20T14:59:57.231Z,3.00
2019-04-20T15:02:30.562Z,3.60
2019-04-20T15:05:03.251Z,4.12
2019-04-20T15:07:36.323Z,3.65
2019-04-20T15:10:09.021Z,3.72
2019-04-20T15:12:49.115Z,3.30
2019-04-20T15:15:14.695Z,3.27
2019-04-20T15:17:51.370Z,3.40
2019-04-20T15:20:39.514Z,3.67
2019-04-20T15:23:21.599Z,3.67
2019-04-20T15:25:54.721Z,3.50
2019-04-20T15:28:26.274Z,3.77
2019-04-20T15:30:58.324Z,3.22
2019-04-20T15:33:30.814Z,3.33
2019-04-20T15:36:02.268Z,3.33
2019-04-20T15:38:33.545Z,3.35
2019-04-20T15:41:06.936Z,3.25
2019-04-20T15:43:39.162Z,3.30
2019-04-20T15:46:10.988Z,3.20
2019-04-20T15:48:42.354Z,3.20
2019-04-20T15:51:17.098Z,3.80
2019-04-20T15:53:49.531Z,3.50
2019-04-20T15:56:20.938Z,3.45
2019-04-20T15:58:52.828Z,3.30
2019-04-20T16:01:28.306Z,3.35
2019-04-20T16:04:21.657Z,3.75
2019-04-20T16:06:47.535Z,3.17
2019-04-20T16:09:19.948Z,3.50
2019-04-20T16:11:52.979Z,3.20
2019-04-20T16:14:25.685Z,3.45
2019-04-20T16:16:58.274Z,3.92
2019-04-20T16:19:41.776Z,3.37
2019-04-20T16:22:03.773Z,3.60
2019-04-20T16:24:38.510Z,3.60
2019-04-20T16:27:35.909Z,3.20
2019-04-20T16:30:09.661Z,3.50
2019-04-20T16:32:42.724Z,3.67
2019-04-20T16:35:14.424Z,4.22
2019-04-20T16:37:46.517Z,3.20
2019-04-20T16:40:18.092Z,3.37
2019-04-20T16:42:50.254Z,3.25
2019-04-20T16:45:21.645Z,2.90
2019-04-20T16:47:54.412Z,3.08
2019-04-20T16:50:26.906Z,3.08
2019-04-20T16:52:59.091Z,3.35
2019-04-20T16:55:30.618Z,3.30
2019-04-20T16:58:01.875Z,3.05
2019-04-20T17:00:33.556Z,3.40
2019-04-20T17:03:05.002Z,3.33
2019-04-20T17:05:37.040Z,3.50
2019-04-20T17:08:08.950Z,3.27
2019-04-20T17:10:41.026Z,3.05
2019-04-20T17:13:13.600Z,2.85
2019-04-20T17:15:45.788Z,3.20
2019-04-20T17:18:17.031Z,3.35
2019-04-20T17:20:48.465Z,3.08
2019-04-20T17:23:19.824Z,3.17
2019-04-20T17:25:52.304Z,4.62
2019-04-20T17:28:38.645Z,3.00
2019-04-20T17:31:43.403Z,2.70
2019-04-20T17:34:36.120Z,3.05
2019-04-20T17:36:50.599Z,2.90
2019-04-20T17:39:31.105Z,2.90
2019-04-20T17:42:12.584Z,2.77
2019-04-20T17:44:44.823Z,2.77
2019-04-20T17:47:24.894Z,2.83
2019-04-20T17:49:57.684Z,3.10
2019-04-20T17:52:36.407Z,3.20
2019-04-20T17:54:49.395Z,2.87
2019-04-20T17:57:21.494Z,2.80
2019-04-20T18:00:02.142Z,2.40
2019-04-20T18:02:58.556Z,2.57
2019-04-20T18:05:51.686Z,2.90
2019-04-20T18:08:26.342Z,2.83
2019-04-20T18:10:52.018Z,2.80
2019-04-20T18:13:18.494Z,2.80
2019-04-20T18:16:04.994Z,2.97
2019-04-20T18:18:49.495Z,3.50
2019-04-20T18:21:28.648Z,3.07
2019-04-20T18:24:00.545Z,3.00
2019-04-20T18:26:54.792Z,2.90
2019-04-20T18:29:26.316Z,2.83
2019-04-20T18:31:45.152Z,3.27
2019-04-20T18:34:34.343Z,2.90
2019-04-20T18:37:10.496Z,2.80
2019-04-20T18:39:43.822Z,3.03
2019-04-20T18:42:18.632Z,3.10
2019-04-20T18:45:05.985Z,3.20
2019-04-20T18:47:39.200Z,3.20
2019-04-20T18:50:04.487Z,3.23
2019-04-20T18:52:25.145Z,2.90
2019-04-20T18:54:57.587Z,3.10
2019-04-20T18:57:31.173Z,3.57
2019-04-20T19:00:02.916Z,3.20
2019-04-20T19:02:41.768Z,3.40
2019-04-20T19:05:11.505Z,3.37
2019-04-20T19:07:52.589Z,3.50
2019-04-20T19:10:24.774Z,3.10
2019-04-20T19:13:00.939Z,2.77
2019-04-20T19:16:00.244Z,3.10
2019-04-20T19:19:00.496Z,3.10
2019-04-20T19:21:21.506Z,17.60
2019-04-20T19:23:59.829Z,14.57
2019-04-20T19:26:27.270Z,3.67
2019-04-20T19:29:11.082Z,3.20
2019-04-20T19:31:46.087Z,2.90
2019-04-20T19:34:26.043Z,3.47
2019-04-20T19:36:47.714Z,3.10
2019-04-20T19:39:26.229Z,3.10
2019-04-20T19:41:52.644Z,3.00
2019-04-20T19:44:27.228Z,3.53
2019-04-20T19:47:11.186Z,3.20
2019-04-20T19:49:34.172Z,3.30
2019-04-20T19:52:25.166Z,3.17
2019-04-20T19:54:50.771Z,3.00
2019-04-20T19:57:24.344Z,3.27
2019-04-20T19:59:41.327Z,3.40
2019-04-20T20:02:11.779Z,3.07
2019-04-20T20:04:49.301Z,3.03
2019-04-20T20:07:25.722Z,3.27
2019-04-20T20:09:56.597Z,3.23
2019-04-20T20:12:23.381Z,3.20
2019-04-20T20:14:57.412Z,3.27
2019-04-20T20:17:48.475Z,4.30
2019-04-20T20:20:25.110Z,3.60
2019-04-20T20:22:41.341Z,3.10
2019-04-20T20:25:09.377Z,3.10
2019-04-20T20:27:49.187Z,3.20
2019-04-20T20:30:22.729Z,3.20
2019-04-20T20:33:04.502Z,3.27
2019-04-20T20:35:23.544Z,3.07
2019-04-20T20:37:57.835Z,3.03
2019-04-20T20:40:34.311Z,3.07
2019-04-20T20:43:10.768Z,3.13
2019-04-20T20:45:39.611Z,3.23
2019-04-20T20:48:28.537Z,3.20
2019-04-20T20:51:00.159Z,3.33
2019-04-20T20:53:23.010Z,3.47
2019-04-20T20:55:53.338Z,3.20
2019-04-20T20:58:33.592Z,3.07
2019-04-20T21:01:03.654Z,2.87
2019-04-20T21:03:34.656Z,2.87
2019-04-20T21:06:00.734Z,3.00
2019-04-20T21:08:36.209Z,3.20
2019-04-20T21:11:13.208Z,2.90
2019-04-20T21:13:43.335Z,3.47
2019-04-20T21:16:17.327Z,2.90
2019-04-20T21:19:00.794Z,3.10
2019-04-20T21:21:33.552Z,3.00
2019-04-20T21:24:00.346Z,3.27
2019-04-20T21:26:35.028Z,2.90
2019-04-20T21:29:01.522Z,3.20
2019-04-20T21:31:34.309Z,2.87
2019-04-20T21:34:09.745Z,3.00
2019-04-20T21:36:38.989Z,2.90
2019-04-20T21:39:20.324Z,2.80
2019-04-20T21:41:49.747Z,2.93
2019-04-20T21:44:25.047Z,2.73
2019-04-20T21:46:54.698Z,2.80
2019-04-20T21:49:38.779Z,2.87
2019-04-20T21:52:03.204Z,3.30
2019-04-20T21:54:31.976Z,3.37
2019-04-20T21:57:07.834Z,3.23
2019-04-20T21:59:43.207Z,2.83
2019-04-20T22:02:18.598Z,3.07
2019-04-20T22:04:43.468Z,2.90
2019-04-20T22:07:16.406Z,2.97
2019-04-20T22:09:51.636Z,3.00
2019-04-20T22:12:21.188Z,2.90
2019-04-20T22:15:00.034Z,3.30
2019-04-20T22:17:30.620Z,3.20
2019-04-20T22:20:12.000Z,2.93
2019-04-20T22:22:50.937Z,3.57
2019-04-20T22:25:28.366Z,3.30
2019-04-20T22:27:40.536Z,3.03
2019-04-20T22:30:14.518Z,3.10
2019-04-20T22:32:48.405Z,3.20
2019-04-20T22:35:19.714Z,3.10
2019-04-20T22:38:06.331Z,2.80
2019-04-20T22:40:33.933Z,3.50
2019-04-20T22:43:06.435Z,3.00
2019-04-20T22:45:41.151Z,3.07
2019-04-20T22:48:14.524Z,3.07
2019-04-20T22:51:03.583Z,3.07
2019-04-20T22:53:31.080Z,3.10
2019-04-20T22:56:16.787Z,3.30
2019-04-20T22:58:38.595Z,2.97
2019-04-20T23:01:04.298Z,3.30
2019-04-20T23:03:30.993Z,3.13
2019-04-20T23:06:02.847Z,2.90
2019-04-20T23:08:35.047Z,3.03
2019-04-20T23:11:14.835Z,3.30
2019-04-20T23:13:43.600Z,2.97
2019-04-20T23:16:13.539Z,2.90
2019-04-20T23:18:44.817Z,3.20
2019-04-20T23:21:17.594Z,3.00
2019-04-20T23:23:53.682Z,2.80
2019-04-20T23:26:28.062Z,2.93
2019-04-20T23:28:58.911Z,3.10
2019-04-20T23:31:29.035Z,3.10
2019-04-20T23:34:09.181Z,3.10
2019-04-20T23:36:40.334Z,2.70
2019-04-20T23:39:10.683Z,2.83
2019-04-20T23:41:51.713Z,2.80
2019-04-20T23:44:23.123Z,2.70
2019-04-20T23:47:08.839Z,2.83
2019-04-20T23:49:54.422Z,2.60
2019-04-20T23:52:35.510Z,3.10
2019-04-20T23:54:51.372Z,3.20
2019-04-20T23:57:17.669Z,2.60
2019-04-20T23:59:50.262Z,2.70
